Time;durP1;ratioP1;P1;durP2;ratioP2;P2;SDS_P1;SDS_P2;PMS_P1;PMS_P2;Temp;Humidity;BMP_temperature;BMP_pressure;BME280_temperature;BME280_humidity;BME280_pressure;Samples;Min_cycle;Max_cycle;Signal;HPM_P1;HPM_P2
2021/12/02 00:01:09;;;;;;;21.70;6.93;;;5.10;99.90;;;;;;4995447;28;20041;-55
2021/12/02 00:03:36;;;;;;;19.92;6.70;;;5.20;99.90;;;;;;5009248;28;20038;-52
2021/12/02 00:06:03;;;;;;;14.60;6.80;;;5.20;99.90;;;;;;5008720;28;20073;-57
2021/12/02 00:08:28;;;;;;;17.60;6.38;;;5.10;99.90;;;;;;5001595;28;20634;-58
2021/12/02 00:10:54;;;;;;;16.70;6.47;;;5.10;99.90;;;;;;5008218;28;20101;-52
2021/12/02 00:13:24;;;;;;;12.68;5.85;;;5.10;99.90;;;;;;5003415;28;20499;-55
2021/12/02 00:15:57;;;;;;;16.13;6.53;;;5.10;99.90;;;;;;5013648;28;20045;-56
2021/12/02 00:21:03;;;;;;;16.08;7.97;;;5.10;99.90;;;;;;5011233;28;20061;-58
2021/12/02 00:23:33;;;;;;;12.40;6.90;;;5.10;99.90;;;;;;5000900;28;20025;-55
2021/12/02 00:26:02;;;;;;;18.70;8.23;;;5.00;99.90;;;;;;5001205;28;20025;-54
2021/12/02 00:28:29;;;;;;;17.95;8.27;;;5.00;99.90;;;;;;4992151;28;20034;-56
2021/12/02 00:31:00;;;;;;;21.25;8.32;;;5.00;99.90;;;;;;5004525;28;20034;-54
2021/12/02 00:33:28;;;;;;;26.83;8.45;;;5.00;99.90;;;;;;5003308;28;20476;-54
2021/12/02 00:35:54;;;;;;;18.02;8.82;;;5.00;99.90;;;;;;5011980;28;20033;-55
2021/12/02 00:38:23;;;;;;;30.33;9.25;;;5.00;99.90;;;;;;4995890;28;20030;-57
2021/12/02 00:40:50;;;;;;;16.52;8.77;;;4.90;99.90;;;;;;5011235;28;20121;-57
2021/12/02 00:43:15;;;;;;;20.98;9.63;;;4.90;99.90;;;;;;5006076;28;20034;-57
2021/12/02 00:45:42;;;;;;;24.15;9.00;;;4.90;99.90;;;;;;5016111;28;20040;-55
2021/12/02 00:48:09;;;;;;;26.42;9.77;;;4.90;99.90;;;;;;4998105;28;20041;-56
2021/12/02 00:50:37;;;;;;;19.17;10.30;;;4.90;99.90;;;;;;5004688;28;20556;-57
2021/12/02 00:53:05;;;;;;;20.45;9.27;;;4.90;99.90;;;;;;5009884;28;20117;-54
2021/12/02 00:55:32;;;;;;;22.15;9.68;;;4.90;99.90;;;;;;5002635;28;20076;-59
2021/12/02 00:57:59;;;;;;;18.23;8.65;;;4.90;99.90;;;;;;5015972;28;20113;-56
2021/12/02 01:00:24;;;;;;;23.02;8.90;;;4.90;99.90;;;;;;4996130;28;20061;-58
2021/12/02 01:02:50;;;;;;;19.45;8.82;;;4.90;99.90;;;;;;5002523;28;20060;-57
2021/12/02 01:05:16;;;;;;;26.52;9.60;;;4.90;99.90;;;;;;5004892;28;20545;-56
2021/12/02 01:07:42;;;;;;;17.40;8.80;;;4.90;99.90;;;;;;4984172;28;20038;-56
2021/12/02 01:10:09;;;;;;;19.83;8.50;;;4.90;99.90;;;;;;4995043;28;20807;-58
2021/12/02 01:12:36;;;;;;;16.65;8.45;;;4.90;99.90;;;;;;4995999;28;20483;-58
2021/12/02 01:15:04;;;;;;;25.95;8.88;;;4.90;99.90;;;;;;5007723;28;20042;-57
2021/12/02 01:17:29;;;;;;;21.75;9.65;;;4.90;99.90;;;;;;5004984;28;20114;-55
2021/12/02 01:19:55;;;;;;;22.40;9.55;;;4.90;99.90;;;;;;5011905;28;20554;-58
2021/12/02 01:22:21;;;;;;;22.45;9.10;;;4.90;99.90;;;;;;5018961;28;20410;-59
2021/12/02 01:24:50;;;;;;;17.45;9.35;;;4.90;99.90;;;;;;5012504;28;20120;-59
2021/12/02 01:27:18;;;;;;;18.77;8.18;;;4.90;99.90;;;;;;5017948;28;20026;-48
2021/12/02 01:29:45;;;;;;;14.40;8.57;;;4.90;99.90;;;;;;5008980;28;20025;-57
2021/12/02 01:32:11;;;;;;;19.60;8.50;;;4.90;99.90;;;;;;5007326;28;20022;-53
2021/12/02 01:34:37;;;;;;;17.08;8.75;;;4.90;99.90;;;;;;5012761;28;20033;-56
2021/12/02 01:37:10;;;;;;;26.92;9.32;;;4.90;99.90;;;;;;5010679;28;20041;-56
2021/12/02 01:39:36;;;;;;;23.23;9.57;;;4.90;99.90;;;;;;5015325;28;20021;-57
2021/12/02 01:42:02;;;;;;;32.25;14.27;;;4.90;99.90;;;;;;5004926;28;20065;-55
2021/12/02 01:44:29;;;;;;;28.52;13.35;;;4.90;99.90;;;;;;5003383;28;20101;-53
2021/12/02 01:46:58;;;;;;;24.83;11.52;;;5.00;99.90;;;;;;5006161;28;20812;-55
2021/12/02 01:49:27;;;;;;;27.38;12.13;;;5.00;99.90;;;;;;5008292;28;20050;-53
2021/12/02 01:52:39;;;;;;;22.25;11.13;;;5.00;99.90;;;;;;5005079;28;20450;-56
2021/12/02 01:55:11;;;;;;;24.35;11.30;;;5.00;99.90;;;;;;5000932;28;20046;-54
2021/12/02 01:57:41;;;;;;;32.50;11.63;;;5.00;99.90;;;;;;5018032;28;20026;-58
2021/12/02 02:00:19;;;;;;;24.48;11.73;;;5.00;99.90;;;;;;5004233;28;20037;-56
2021/12/02 02:02:44;;;;;;;33.65;13.02;;;5.00;99.90;;;;;;5006600;28;20620;-55
2021/12/02 02:05:13;;;;;;;27.95;12.10;;;5.10;99.90;;;;;;5011282;28;20108;-56
2021/12/02 02:08:00;;;;;;;41.53;16.80;;;5.10;99.90;;;;;;5003364;28;20624;-55
2021/12/02 02:10:29;;;;;;;25.20;13.07;;;5.10;99.90;;;;;;4990512;28;20050;-55
2021/12/02 02:12:58;;;;;;;29.98;12.63;;;5.10;99.90;;;;;;5005767;28;20014;-57
2021/12/02 02:15:27;;;;;;;28.30;12.85;;;5.10;99.90;;;;;;5007728;28;20021;-54
2021/12/02 02:20:49;;;;;;;43.38;18.30;;;5.10;99.90;;;;;;5008539;28;20450;-55
2021/12/02 02:23:15;;;;;;;23.30;11.50;;;5.10;99.90;;;;;;5004676;28;20022;-52
2021/12/02 02:25:45;;;;;;;31.35;12.73;;;5.10;99.90;;;;;;5000110;28;20026;-55
2021/12/02 02:28:11;;;;;;;33.50;13.77;;;5.10;99.90;;;;;;5005778;28;20128;-58
2021/12/02 02:30:37;;;;;;;21.85;10.80;;;5.00;99.90;;;;;;5006504;28;20041;-55
2021/12/02 02:33:03;;;;;;;26.95;12.45;;;5.00;99.90;;;;;;4999670;28;20036;-55
2021/12/02 02:35:29;;;;;;;66.38;21.00;;;5.00;99.90;;;;;;5002409;28;20391;-53
2021/12/02 02:37:54;;;;;;;23.23;11.48;;;5.00;99.90;;;;;;5003511;28;20173;-56
2021/12/02 02:40:20;;;;;;;26.95;12.32;;;5.00;99.90;;;;;;5003059;28;20051;-54
2021/12/02 02:42:55;;;;;;;19.52;9.90;;;5.10;99.90;;;;;;4994647;28;20030;-56
2021/12/02 02:45:21;;;;;;;22.17;10.32;;;5.00;99.90;;;;;;5008083;28;20091;-56
2021/12/02 02:47:46;;;;;;;18.83;9.93;;;5.00;99.90;;;;;;5004135;28;20124;-56
2021/12/02 02:50:13;;;;;;;20.13;10.73;;;5.00;99.90;;;;;;5000900;28;20041;-57
2021/12/02 02:52:39;;;;;;;19.27;9.88;;;5.10;99.90;;;;;;5002110;28;20026;-55
2021/12/02 02:55:06;;;;;;;19.17;9.98;;;5.00;99.90;;;;;;5004779;28;20034;-59
2021/12/02 02:57:40;;;;;;;24.23;10.02;;;5.00;99.90;;;;;;5007790;28;20033;-56
2021/12/02 03:00:10;;;;;;;19.63;10.50;;;5.00;99.90;;;;;;5017286;28;20041;-58
2021/12/02 03:07:45;;;;;;;21.00;10.85;;;5.00;99.90;;;;;;5003719;28;20160;-57
2021/12/02 03:10:32;;;;;;;15.43;7.90;;;5.00;99.90;;;;;;4987002;28;20046;-56
2021/12/02 03:13:10;;;;;;;18.60;8.63;;;5.00;99.90;;;;;;5003997;28;20057;-56
2021/12/02 03:18:20;;;;;;;19.40;9.60;;;5.00;99.90;;;;;;5000287;28;20049;-59
2021/12/02 03:20:46;;;;;;;21.52;9.90;;;4.90;99.90;;;;;;5006865;28;20030;-56
2021/12/02 03:23:11;;;;;;;18.40;9.45;;;5.00;99.90;;;;;;5006236;28;20038;-55
2021/12/02 03:25:37;;;;;;;17.35;8.88;;;5.00;99.90;;;;;;5005955;28;20044;-58
2021/12/02 03:28:03;;;;;;;15.48;8.75;;;4.90;99.90;;;;;;5000178;28;20463;-57
2021/12/02 03:30:29;;;;;;;18.38;6.95;;;4.90;99.90;;;;;;5004748;28;20683;-57
2021/12/02 03:32:55;;;;;;;14.90;6.10;;;4.90;99.90;;;;;;4999647;28;20038;-54
2021/12/02 03:35:20;;;;;;;9.55;4.97;;;4.90;99.90;;;;;;5005422;28;20057;-58
2021/12/02 03:37:46;;;;;;;8.45;4.20;;;4.80;99.90;;;;;;5005520;28;20026;-58
2021/12/02 03:40:12;;;;;;;10.13;4.85;;;4.80;99.90;;;;;;4998844;28;20038;-54
2021/12/02 03:42:53;;;;;;;12.40;4.95;;;4.80;99.90;;;;;;5007877;28;20032;-59
2021/12/02 03:45:23;;;;;;;11.95;5.40;;;4.70;99.90;;;;;;5018508;28;20032;-50
2021/12/02 03:47:48;;;;;;;10.75;5.35;;;4.70;99.90;;;;;;5002858;28;20025;-58
2021/12/02 03:50:15;;;;;;;13.45;4.63;;;4.70;99.90;;;;;;5013985;28;20093;-53
2021/12/02 03:52:40;;;;;;;11.48;5.13;;;4.70;99.90;;;;;;5012475;28;20033;-56
2021/12/02 03:55:06;;;;;;;11.57;5.97;;;4.60;99.90;;;;;;5010889;28;20033;-54
2021/12/02 03:57:32;;;;;;;13.55;5.60;;;4.60;99.90;;;;;;5005983;28;20030;-56
2021/12/02 03:59:59;;;;;;;12.98;5.57;;;4.60;99.90;;;;;;5005516;28;20108;-51
2021/12/02 04:02:24;;;;;;;11.10;4.80;;;4.60;99.90;;;;;;5000579;28;20049;-57
2021/12/02 04:04:50;;;;;;;11.18;4.40;;;4.50;99.90;;;;;;4999125;28;20029;-57
2021/12/02 04:07:20;;;;;;;26.13;6.30;;;4.50;99.90;;;;;;5000823;28;20038;-54
2021/12/02 04:09:47;;;;;;;14.05;5.30;;;4.50;99.90;;;;;;5004573;28;20084;-58
2021/12/02 04:15:02;;;;;;;13.55;5.63;;;4.50;99.90;;;;;;5000175;28;20110;-56
2021/12/02 04:17:49;;;;;;;11.70;6.05;;;4.50;99.90;;;;;;5005321;28;20032;-59
2021/12/02 04:20:17;;;;;;;16.77;6.28;;;4.50;99.90;;;;;;5004874;28;20054;-60
2021/12/02 04:22:44;;;;;;;13.43;5.47;;;4.50;99.90;;;;;;4998185;28;20040;-56
2021/12/02 04:25:11;;;;;;;13.93;6.10;;;4.50;99.90;;;;;;5001425;28;20491;-49
2021/12/02 04:27:36;;;;;;;14.63;6.40;;;4.50;99.90;;;;;;4999643;28;20061;-54
2021/12/02 04:30:07;;;;;;;13.63;6.43;;;4.50;99.90;;;;;;4996137;28;20057;-56
2021/12/02 04:32:33;;;;;;;15.85;6.80;;;4.50;99.90;;;;;;4996474;28;20022;-56
2021/12/02 04:34:59;;;;;;;22.58;8.00;;;4.50;99.90;;;;;;5008063;28;20106;-58
2021/12/02 04:37:24;;;;;;;16.63;7.35;;;4.50;99.90;;;;;;5008412;28;20045;-56
2021/12/02 04:39:50;;;;;;;14.30;6.85;;;4.50;99.90;;;;;;4994324;28;20072;-57
2021/12/02 04:42:16;;;;;;;15.63;6.13;;;4.50;99.90;;;;;;5007457;28;20551;-58
2021/12/02 04:44:42;;;;;;;13.02;6.15;;;4.50;99.90;;;;;;4999238;28;20084;-58
2021/12/02 04:47:08;;;;;;;17.10;6.35;;;4.50;99.90;;;;;;5000071;28;20037;-57
2021/12/02 04:49:34;;;;;;;13.40;6.32;;;4.50;99.90;;;;;;5002550;28;20088;-57
2021/12/02 04:52:00;;;;;;;15.10;6.90;;;4.50;99.90;;;;;;5011883;28;20025;-59
2021/12/02 04:54:25;;;;;;;14.30;7.60;;;4.50;99.90;;;;;;5001495;28;20026;-58
2021/12/02 04:56:51;;;;;;;17.77;6.93;;;4.50;99.90;;;;;;5007894;28;20029;-54
2021/12/02 04:59:16;;;;;;;12.73;7.13;;;4.50;99.90;;;;;;5005631;28;20033;-54
2021/12/02 05:01:42;;;;;;;15.52;6.85;;;4.50;99.90;;;;;;4998057;28;20051;-56
2021/12/02 05:04:09;;;;;;;19.77;7.50;;;4.50;99.90;;;;;;5007381;28;20042;-58
2021/12/02 05:06:34;;;;;;;14.65;5.80;;;4.50;99.90;;;;;;5008225;28;20555;-58
2021/12/02 05:09:00;;;;;;;17.20;5.85;;;4.40;99.90;;;;;;5000946;28;20120;-57
2021/12/02 05:11:26;;;;;;;13.68;5.50;;;4.40;99.90;;;;;;5003777;28;20026;-56
2021/12/02 05:13:51;;;;;;;16.70;6.10;;;4.40;99.90;;;;;;4999278;28;20472;-58
2021/12/02 05:16:17;;;;;;;9.77;5.15;;;4.40;99.90;;;;;;4999660;28;20073;-58
2021/12/02 05:18:42;;;;;;;12.07;5.47;;;4.30;99.90;;;;;;4999012;28;20498;-59
2021/12/02 05:21:08;;;;;;;10.75;5.35;;;4.30;99.90;;;;;;4996851;28;20034;-59
2021/12/02 05:23:34;;;;;;;10.38;4.70;;;4.30;99.90;;;;;;5006200;28;20085;-57
2021/12/02 05:25:59;;;;;;;7.15;3.90;;;4.30;99.90;;;;;;5004018;28;20129;-57
2021/12/02 05:28:25;;;;;;;7.97;3.67;;;4.30;99.90;;;;;;4998201;28;20045;-56
2021/12/02 05:30:51;;;;;;;10.10;4.43;;;4.30;99.90;;;;;;5000158;28;20526;-59
2021/12/02 05:33:16;;;;;;;8.55;3.60;;;4.20;99.90;;;;;;4998743;28;20038;-59
2021/12/02 05:35:43;;;;;;;8.48;3.95;;;4.20;99.90;;;;;;5003164;28;20604;-57
2021/12/02 05:38:09;;;;;;;11.25;4.20;;;4.20;99.90;;;;;;4999370;28;20034;-59
2021/12/02 05:40:34;;;;;;;13.15;3.80;;;4.20;99.90;;;;;;5002649;28;20034;-58
2021/12/02 05:43:00;;;;;;;4.82;3.20;;;4.20;99.90;;;;;;5002989;28;20033;-57
2021/12/02 05:45:26;;;;;;;9.18;3.28;;;4.20;99.90;;;;;;5012985;28;20030;-58
2021/12/02 05:47:51;;;;;;;18.65;5.50;;;4.20;99.90;;;;;;5013824;28;20033;-59
2021/12/02 05:50:17;;;;;;;8.48;3.97;;;4.20;99.90;;;;;;4998224;28;20137;-58
2021/12/02 05:52:42;;;;;;;14.60;4.05;;;4.20;99.90;;;;;;5000852;28;20062;-54
2021/12/02 05:55:08;;;;;;;10.93;4.57;;;4.20;99.90;;;;;;5001167;28;20044;-56
2021/12/02 05:57:34;;;;;;;13.20;4.90;;;4.10;99.90;;;;;;5001260;28;20026;-59
2021/12/02 06:00:00;;;;;;;11.93;4.63;;;4.10;99.90;;;;;;5008860;28;20033;-59
2021/12/02 06:02:26;;;;;;;11.63;4.75;;;4.20;99.90;;;;;;5004082;28;20124;-57
2021/12/02 06:04:52;;;;;;;12.20;5.18;;;4.20;99.90;;;;;;5007949;28;20051;-57
2021/12/02 06:07:20;;;;;;;9.80;4.93;;;4.20;99.90;;;;;;5000196;28;20026;-57
2021/12/02 06:09:46;;;;;;;13.68;5.65;;;4.20;99.90;;;;;;5000220;28;20065;-57
2021/12/02 06:12:12;;;;;;;13.38;5.70;;;4.20;99.90;;;;;;5002975;28;20056;-56
2021/12/02 06:14:38;;;;;;;11.93;5.53;;;4.20;99.90;;;;;;5008349;28;20535;-57
2021/12/02 06:17:04;;;;;;;15.82;6.38;;;4.20;99.90;;;;;;5006121;28;20507;-59
2021/12/02 06:19:29;;;;;;;9.43;4.85;;;4.20;99.90;;;;;;5004473;28;20038;-59
2021/12/02 06:21:55;;;;;;;14.63;6.28;;;4.20;99.90;;;;;;5009763;28;20138;-56
2021/12/02 06:24:28;;;;;;;17.20;8.15;;;4.20;99.90;;;;;;5000494;28;20038;-57
2021/12/02 06:26:54;;;;;;;10.02;5.63;;;4.20;99.90;;;;;;5006688;28;20040;-61
2021/12/02 06:29:19;;;;;;;17.85;5.22;;;4.10;99.90;;;;;;5002982;28;20045;-56
2021/12/02 06:31:45;;;;;;;13.23;6.30;;;4.10;99.90;;;;;;5009615;28;20032;-56
2021/12/02 06:34:11;;;;;;;16.35;5.97;;;4.10;99.90;;;;;;4999667;28;20026;-57
2021/12/02 06:36:37;;;;;;;11.70;5.95;;;4.00;99.90;;;;;;5008556;28;20038;-59
2021/12/02 06:39:04;;;;;;;12.25;5.13;;;4.00;99.90;;;;;;5007411;28;20034;-59
2021/12/02 06:41:30;;;;;;;14.30;7.05;;;4.10;99.90;;;;;;5005528;28;20038;-58
2021/12/02 06:43:55;;;;;;;11.18;5.95;;;4.00;99.90;;;;;;5000141;28;20088;-58
2021/12/02 06:46:21;;;;;;;13.45;6.45;;;4.10;99.90;;;;;;5008120;28;20034;-55
2021/12/02 06:48:49;;;;;;;12.38;6.00;;;4.10;99.90;;;;;;5006478;28;20040;-52
2021/12/02 06:51:15;;;;;;;15.32;6.45;;;4.10;99.90;;;;;;5004433;28;20030;-58
2021/12/02 06:53:41;;;;;;;12.73;5.68;;;4.00;99.90;;;;;;5000574;28;20033;-57
2021/12/02 06:56:07;;;;;;;16.55;5.95;;;4.00;99.90;;;;;;4995124;28;20056;-57
2021/12/02 06:58:33;;;;;;;26.08;7.18;;;4.00;99.90;;;;;;4994104;28;20042;-57
2021/12/02 07:00:58;;;;;;;9.85;6.15;;;4.00;99.90;;;;;;4995250;28;20487;-58
2021/12/02 07:03:24;;;;;;;8.75;5.50;;;4.00;99.90;;;;;;4998186;28;20045;-59
2021/12/02 07:05:50;;;;;;;19.60;8.20;;;4.00;99.90;;;;;;4994867;28;21651;-59
2021/12/02 07:08:15;;;;;;;11.13;6.43;;;4.00;99.90;;;;;;4984741;28;20037;-58
2021/12/02 07:10:42;;;;;;;12.35;6.55;;;3.90;99.90;;;;;;5003273;28;20113;-59
2021/12/02 07:13:07;;;;;;;24.25;16.85;;;3.90;99.90;;;;;;5000471;28;20391;-54
2021/12/02 07:15:40;;;;;;;16.45;5.95;;;3.90;99.90;;;;;;5005130;28;20032;-57
2021/12/02 07:18:12;;;;;;;13.73;4.72;;;3.90;99.90;;;;;;5006991;28;20042;-57
2021/12/02 07:20:38;;;;;;;9.63;3.90;;;3.90;99.90;;;;;;5003083;28;20060;-57
2021/12/02 07:23:05;;;;;;;14.52;4.10;;;3.90;99.90;;;;;;5007127;28;20630;-57
2021/12/02 07:25:31;;;;;;;9.70;3.50;;;3.90;99.90;;;;;;5002989;28;20034;-57
2021/12/02 07:27:57;;;;;;;5.93;3.30;;;3.90;99.90;;;;;;5005879;28;20038;-55
2021/12/02 07:30:23;;;;;;;5.57;3.40;;;3.90;99.90;;;;;;5003870;28;20044;-58
2021/12/02 07:32:55;;;;;;;7.60;3.53;;;3.90;99.90;;;;;;5007758;28;20391;-55
2021/12/02 07:35:21;;;;;;;7.43;3.30;;;3.90;99.90;;;;;;5000112;28;20045;-56
2021/12/02 07:37:50;;;;;;;6.43;3.20;;;3.90;99.90;;;;;;4999935;28;20034;-57
2021/12/02 07:40:17;;;;;;;6.60;3.20;;;3.90;99.90;;;;;;5003137;28;20042;-57
2021/12/02 07:42:48;;;;;;;11.10;3.33;;;3.90;99.90;;;;;;5000018;28;20509;-57
2021/12/02 07:45:14;;;;;;;16.25;3.85;;;3.90;99.90;;;;;;5001251;28;20064;-56
2021/12/02 07:47:41;;;;;;;10.07;3.85;;;3.80;99.90;;;;;;5006682;28;20048;-57
2021/12/02 07:50:09;;;;;;;7.88;3.60;;;3.90;99.90;;;;;;5006369;28;20033;-55
2021/12/02 07:52:40;;;;;;;11.10;4.03;;;3.90;99.90;;;;;;5003708;28;20060;-58
2021/12/02 07:55:07;;;;;;;14.45;4.90;;;3.90;99.90;;;;;;5005253;28;20041;-57
2021/12/02 07:57:34;;;;;;;11.18;4.32;;;3.90;99.90;;;;;;5003116;28;20034;-59
2021/12/02 08:00:01;;;;;;;8.77;3.88;;;3.90;99.90;;;;;;5000785;28;20421;-54
2021/12/02 08:02:33;;;;;;;16.38;6.22;;;3.90;99.90;;;;;;5006888;28;20033;-59
2021/12/02 08:04:58;;;;;;;13.65;4.47;;;3.90;99.90;;;;;;5001267;28;20125;-56
2021/12/02 08:07:24;;;;;;;14.48;4.70;;;3.90;99.90;;;;;;5005920;28;20116;-51
2021/12/02 08:09:50;;;;;;;9.25;4.50;;;3.90;99.90;;;;;;5001220;28;20064;-56
2021/12/02 08:12:16;;;;;;;12.82;6.03;;;4.00;99.90;;;;;;4998197;28;20400;-56
2021/12/02 08:14:41;;;;;;;11.10;4.25;;;4.00;99.90;;;;;;5000633;28;20095;-56
2021/12/02 08:17:07;;;;;;;10.05;4.78;;;4.00;99.90;;;;;;5005751;28;20034;-59
2021/12/02 08:19:33;;;;;;;8.27;4.95;;;4.00;99.90;;;;;;4995665;28;20108;-58
2021/12/02 08:21:58;;;;;;;12.73;5.68;;;3.80;99.90;;;;;;5016068;28;20037;-59
2021/12/02 08:24:25;;;;;;;10.45;5.95;;;3.80;99.90;;;;;;5006395;28;20029;-55
2021/12/02 08:26:53;;;;;;;13.32;6.00;;;3.80;99.90;;;;;;5012001;28;20022;-59
2021/12/02 08:29:20;;;;;;;12.38;5.72;;;3.80;99.90;;;;;;5019853;28;20037;-57
2021/12/02 08:31:46;;;;;;;11.77;5.30;;;3.80;99.90;;;;;;5003961;28;20022;-56
2021/12/02 08:34:11;;;;;;;8.05;4.45;;;3.80;99.90;;;;;;5005261;28;20081;-55
2021/12/02 08:36:51;;;;;;;5.88;3.35;;;3.70;99.90;;;;;;5010428;28;20037;-56
2021/12/02 08:39:23;;;;;;;5.35;3.70;;;3.50;99.90;;;;;;5010149;28;20084;-57
2021/12/02 08:41:51;;;;;;;6.57;3.80;;;3.20;99.90;;;;;;5008713;28;20107;-57
2021/12/02 08:44:17;;;;;;;6.82;3.10;;;3.20;99.90;;;;;;5012006;28;20399;-57
2021/12/02 08:46:43;;;;;;;9.63;3.40;;;3.00;99.90;;;;;;5006160;28;20026;-54
2021/12/02 08:49:10;;;;;;;8.18;4.07;;;3.00;99.90;;;;;;5009138;28;20041;-57
2021/12/02 08:51:35;;;;;;;7.60;4.10;;;2.90;99.90;;;;;;5005176;28;20149;-57
2021/12/02 08:54:01;;;;;;;9.10;5.28;;;3.00;99.90;;;;;;5006352;28;20491;-58
2021/12/02 08:56:27;;;;;;;8.15;5.32;;;3.10;99.90;;;;;;5014439;28;20076;-58
2021/12/02 08:58:53;;;;;;;8.05;5.55;;;3.20;99.90;;;;;;5017434;28;20467;-57
2021/12/02 09:01:19;;;;;;;10.75;6.13;;;3.40;99.90;;;;;;5012249;28;20105;-59
2021/12/02 09:03:44;;;;;;;7.93;4.63;;;3.50;99.90;;;;;;5019885;28;20060;-58
2021/12/02 09:06:11;;;;;;;16.48;6.38;;;3.70;99.90;;;;;;5016399;28;20038;-58
2021/12/02 09:08:39;;;;;;;7.15;3.88;;;3.80;99.90;;;;;;5010995;28;20038;-55
2021/12/02 09:11:05;;;;;;;7.93;3.90;;;3.90;99.90;;;;;;5009369;28;21508;-58
2021/12/02 09:13:32;;;;;;;9.85;4.57;;;3.90;99.90;;;;;;5014556;28;20556;-57
2021/12/02 09:15:57;;;;;;;6.10;4.50;;;4.00;99.90;;;;;;5014633;28;20506;-57
2021/12/02 09:18:23;;;;;;;9.02;4.40;;;4.00;99.90;;;;;;5006126;28;20053;-57
2021/12/02 09:20:50;;;;;;;9.27;4.70;;;4.00;99.90;;;;;;4990541;28;20549;-57
2021/12/02 09:23:16;;;;;;;6.32;3.92;;;4.00;99.90;;;;;;5005897;28;20032;-58
2021/12/02 09:25:42;;;;;;;5.57;3.92;;;4.00;99.90;;;;;;5015065;28;20017;-57
2021/12/02 09:28:08;;;;;;;10.07;4.50;;;4.00;99.90;;;;;;5013882;28;20105;-57
2021/12/02 09:30:35;;;;;;;5.80;3.33;;;3.90;99.90;;;;;;5013782;28;20022;-57
2021/12/02 09:33:00;;;;;;;5.22;3.38;;;3.90;99.90;;;;;;5022524;28;20021;-58
2021/12/02 09:35:26;;;;;;;8.35;3.45;;;3.80;99.90;;;;;;5012694;28;20723;-55
2021/12/02 09:37:52;;;;;;;5.40;4.45;;;3.70;99.90;;;;;;5010976;28;20030;-58
2021/12/02 09:40:18;;;;;;;7.60;3.50;;;3.80;99.90;;;;;;5004961;28;20030;-59
2021/12/02 09:42:45;;;;;;;8.25;4.28;;;3.80;99.90;;;;;;5009557;28;20029;-59
2021/12/02 09:45:11;;;;;;;8.48;4.25;;;3.80;99.90;;;;;;5007927;28;20033;-58
2021/12/02 09:47:40;;;;;;;8.38;4.57;;;3.90;99.90;;;;;;5017035;28;20035;-58
2021/12/02 09:50:12;;;;;;;7.25;4.53;;;4.00;99.90;;;;;;5016108;28;20029;-57
2021/12/02 09:52:40;;;;;;;7.65;5.10;;;4.00;99.90;;;;;;5011889;28;20029;-57
2021/12/02 09:55:19;;;;;;;8.48;5.10;;;4.00;99.90;;;;;;5012751;28;20025;-58
2021/12/02 09:57:50;;;;;;;7.57;3.95;;;4.00;99.90;;;;;;5009608;28;20065;-56
2021/12/02 10:00:23;;;;;;;7.60;4.60;;;4.00;99.90;;;;;;5005348;28;20033;-58
2021/12/02 10:03:19;;;;;;;9.10;4.90;;;3.90;99.90;;;;;;5007342;28;20065;-58
2021/12/02 10:05:40;;;;;;;14.90;6.72;;;3.90;99.90;;;;;;5014195;28;20044;-57
2021/12/02 10:08:09;;;;;;;7.80;4.88;;;3.80;99.90;;;;;;5011590;28;20510;-56
2021/12/02 10:10:41;;;;;;;12.35;5.43;;;3.70;99.90;;;;;;5015518;28;20061;-60
2021/12/02 10:13:21;;;;;;;9.10;4.78;;;3.70;99.90;;;;;;5015163;28;20049;-59
2021/12/02 10:16:22;;;;;;;8.77;4.53;;;3.70;99.90;;;;;;5006886;28;20022;-57
2021/12/02 10:19:01;;;;;;;9.90;4.25;;;3.70;99.90;;;;;;5006498;28;20034;-57
2021/12/02 10:21:55;;;;;;;6.82;3.78;;;3.70;99.90;;;;;;5008592;28;20114;-55
2021/12/02 10:24:24;;;;;;;9.57;4.63;;;3.70;99.90;;;;;;5012841;28;20068;-60
2021/12/02 10:26:54;;;;;;;4.25;2.97;;;3.70;99.90;;;;;;5019258;28;20487;-59
2021/12/02 10:29:39;;;;;;;4.03;3.10;;;3.70;99.90;;;;;;5003317;28;20034;-60
2021/12/02 10:32:12;;;;;;;5.78;3.00;;;3.80;99.90;;;;;;5007728;28;20030;-59
2021/12/02 10:35:02;;;;;;;4.80;3.13;;;4.00;99.90;;;;;;5009333;28;20092;-58
2021/12/02 10:37:31;;;;;;;5.75;2.53;;;4.20;99.90;;;;;;5018386;28;20474;-58
2021/12/02 10:40:10;;;;;;;7.22;2.90;;;4.40;99.90;;;;;;5014396;28;20515;-59
2021/12/02 10:42:41;;;;;;;5.05;2.40;;;4.50;99.90;;;;;;5013807;28;20082;-60
2021/12/02 10:45:17;;;;;;;6.53;2.58;;;4.60;99.90;;;;;;5009534;28;20108;-59
2021/12/02 10:47:48;;;;;;;3.42;2.40;;;4.60;99.90;;;;;;4999609;28;20034;-58
2021/12/02 10:50:14;;;;;;;3.35;2.63;;;4.60;99.90;;;;;;5001566;28;20447;-60
2021/12/02 10:52:39;;;;;;;4.88;2.80;;;4.70;99.90;;;;;;5005213;28;20091;-56
2021/12/02 10:55:09;;;;;;;3.97;2.13;;;4.90;99.90;;;;;;5012400;28;20057;-59
2021/12/02 10:57:44;;;;;;;6.07;2.92;;;5.00;99.90;;;;;;5018770;28;20030;-58
2021/12/02 11:00:14;;;;;;;10.10;3.50;;;5.10;99.90;;;;;;5016464;28;20030;-57
2021/12/02 11:02:48;;;;;;;80.05;44.95;;;5.40;99.90;;;;;;5018147;28;20077;-61
2021/12/02 11:05:28;;;;;;;44.80;22.95;;;5.40;99.90;;;;;;5014621;28;20033;-60
2021/12/02 11:08:05;;;;;;;6.43;3.25;;;5.50;99.90;;;;;;5009446;28;20399;-60
2021/12/02 11:10:39;;;;;;;13.98;11.10;;;5.60;99.90;;;;;;5001820;28;20031;-56
2021/12/02 11:13:06;;;;;;;62.15;32.80;;;5.60;99.90;;;;;;5014300;28;20308;-60
2021/12/02 11:15:33;;;;;;;8.27;4.75;;;5.30;99.90;;;;;;5011986;28;20026;-57
2021/12/02 11:18:02;;;;;;;5.00;2.42;;;5.20;99.90;;;;;;5010659;28;20033;-57
2021/12/02 11:20:35;;;;;;;4.47;3.10;;;5.10;99.90;;;;;;5015888;28;20104;-57
2021/12/02 11:23:08;;;;;;;6.55;3.17;;;5.00;99.90;;;;;;5016005;28;20482;-57
2021/12/02 11:25:39;;;;;;;4.20;2.58;;;4.90;99.90;;;;;;5008152;28;20033;-55
2021/12/02 11:28:07;;;;;;;3.58;2.15;;;4.90;99.90;;;;;;5009181;28;20033;-58
2021/12/02 11:30:34;;;;;;;5.63;2.58;;;5.00;99.90;;;;;;5007708;28;20131;-58
2021/12/02 11:33:00;;;;;;;4.90;2.80;;;5.00;99.90;;;;;;5017572;28;20022;-58
2021/12/02 11:35:40;;;;;;;3.60;2.13;;;5.00;99.90;;;;;;4998972;28;20059;-56
2021/12/02 11:38:22;;;;;;;6.50;2.40;;;4.80;99.90;;;;;;5016541;28;20029;-60
2021/12/02 11:40:59;;;;;;;6.95;2.10;;;4.80;99.90;;;;;;5006726;28;20042;-59
2021/12/02 11:43:28;;;;;;;5.85;2.78;;;4.90;99.90;;;;;;5016223;28;20032;-56
2021/12/02 11:45:55;;;;;;;6.47;2.35;;;5.10;99.90;;;;;;5010861;28;20036;-57
2021/12/02 11:48:33;;;;;;;4.90;2.83;;;5.40;99.90;;;;;;5013663;28;20041;-59
2021/12/02 11:51:05;;;;;;;4.13;2.38;;;5.50;99.90;;;;;;5008067;28;20032;-58
2021/12/02 11:53:30;;;;;;;5.55;2.10;;;5.70;99.90;;;;;;5012184;28;20025;-59
2021/12/02 11:55:57;;;;;;;8.10;2.53;;;5.50;99.90;;;;;;5004806;28;20560;-58
2021/12/02 11:58:23;;;;;;;7.28;2.17;;;5.30;99.90;;;;;;5005790;28;20037;-57
2021/12/02 12:00:50;;;;;;;7.20;3.10;;;5.10;99.90;;;;;;5003215;28;20029;-60
2021/12/02 12:03:29;;;;;;;7.82;3.38;;;4.90;99.90;;;;;;4998889;28;20030;-58
2021/12/02 12:05:56;;;;;;;7.65;2.67;;;4.70;99.90;;;;;;5003630;28;20026;-57
2021/12/02 12:08:45;;;;;;;7.25;2.63;;;4.70;99.90;;;;;;5008542;28;20515;-60
2021/12/02 12:11:22;;;;;;;7.03;2.65;;;4.80;99.90;;;;;;5012172;28;20029;-60
2021/12/02 12:13:50;;;;;;;12.73;3.67;;;4.90;99.90;;;;;;5005132;28;20519;-58
2021/12/02 12:16:23;;;;;;;5.70;2.65;;;4.90;99.90;;;;;;5016431;28;20025;-58
2021/12/02 12:18:49;;;;;;;3.88;1.98;;;5.00;99.90;;;;;;5011098;28;20406;-60
2021/12/02 12:21:15;;;;;;;3.33;1.85;;;5.10;99.90;;;;;;5021011;28;20037;-58
2021/12/02 12:23:59;;;;;;;4.93;2.40;;;5.20;99.90;;;;;;5009860;28;20585;-55
2021/12/02 12:26:27;;;;;;;8.80;2.28;;;5.50;99.90;;;;;;5006454;28;20104;-54
2021/12/02 12:31:33;;;;;;;7.50;2.42;;;5.90;99.90;;;;;;5009612;28;20491;-59
2021/12/02 12:34:00;;;;;;;5.78;1.38;;;5.80;99.90;;;;;;5003135;28;20601;-57
2021/12/02 12:36:44;;;;;;;6.72;1.70;;;5.50;99.90;;;;;;5001092;28;20133;-57
2021/12/02 12:39:18;;;;;;;2.85;1.40;;;5.20;99.90;;;;;;5002211;28;20053;-61
2021/12/02 12:42:06;;;;;;;11.40;5.55;;;4.70;99.90;;;;;;4996737;28;20643;-58
2021/12/02 12:44:56;;;;;;;3.47;1.83;;;4.30;99.90;;;;;;4997305;28;20035;-57
2021/12/02 12:47:47;;;;;;;4.13;2.03;;;3.90;99.90;;;;;;5012844;28;20034;-58
2021/12/02 12:50:42;;;;;;;3.95;2.03;;;3.70;99.90;;;;;;4997137;28;20141;-57
2021/12/02 12:53:17;;;;;;;;;;;3.70;99.90;;;;;;4998283;28;20061;-58
2021/12/02 12:55:55;;;;;;;3.33;2.33;;;3.60;99.90;;;;;;4995391;28;20005;-59
2021/12/02 12:58:26;;;;;;;8.52;2.60;;;3.60;99.90;;;;;;4995245;28;20030;-57
2021/12/02 13:00:56;;;;;;;5.13;2.80;;;3.60;99.90;;;;;;4993344;28;20022;-57
2021/12/02 13:03:28;;;;;;;4.82;2.97;;;3.70;99.90;;;;;;4991974;28;20026;-58
2021/12/02 13:06:00;;;;;;;6.78;2.88;;;3.70;99.90;;;;;;4996518;28;20491;-58
2021/12/02 13:08:33;;;;;;;9.73;3.35;;;3.80;99.90;;;;;;4998780;28;20029;-58
2021/12/02 13:11:01;;;;;;;8.75;3.38;;;3.80;99.90;;;;;;5005282;28;20050;-58
2021/12/02 13:13:30;;;;;;;21.90;10.68;;;3.90;99.90;;;;;;5014369;28;20075;-52
2021/12/02 13:16:15;;;;;;;15.73;8.07;;;4.00;99.90;;;;;;5005256;28;20023;-59
2021/12/02 13:18:42;;;;;;;;;;;4.00;99.90;;;;;;5008710;28;20037;-59